CheckWX is a tool to help pilots better visualize weather data.  It is not intended as a substitute for an official pre-flight weather briefing.

03:12:27 UTC

KHIB METAR
Range Regional Airport
Hibbing, Minnesota, USA
Current

19 mins ago

KHIB 210253Z AUTO 20006KT 10SM CLR M12/M18 A3033 RMK AO2 SLP315 T11221178 58010
Observed
Feb-21 @ 02:53 UTC
Wind
  • 200° at 6 KTS
Visibility
10 SM
Flight Rules
VFR
Cloud Levels
  • Clear skies
Temperature
-12°C / 10°F
Dewpoint
-18°C / -0°F
Humidity
61%
Altimeter
30.33" Hg
Pressure
1027.12 hPa
Previous

1 hour ago

KHIB 210153Z AUTO 19005KT 10SM CLR M12/M18 A3035 RMK AO2 SLP325 T11171183
Observed
Feb-21 @ 01:53 UTC
Wind
  • 190° at 5 KTS
Visibility
10 SM
Flight Rules
VFR
Cloud Levels
  • Clear skies
Temperature
-12°C / 10°F
Dewpoint
-18°C / -0°F
Humidity
61%
Altimeter
30.35" Hg
Pressure
1027.82 hPa
Previous

2 hours ago

KHIB 210053Z AUTO 20005KT 10SM CLR M11/M18 A3037 RMK AO2 SLP332 T11061178
Observed
Feb-21 @ 00:53 UTC
Wind
  • 200° at 5 KTS
Visibility
10 SM
Flight Rules
VFR
Cloud Levels
  • Clear skies
Temperature
-11°C / 12°F
Dewpoint
-18°C / -0°F
Humidity
57%
Altimeter
30.37" Hg
Pressure
1028.42 hPa